4°C Temp
2°C Dewpoint
% Humidity
Temperature
35 KM/H
22 MPH
19 KTS
30°
North North
East

Wind Speed
Light Rain
Showers
Pressure 1035.92 (hPa) - 30.59 (in)
Visibility 6.2 (mi) - 10.0 (km)

Current Conditions
EGKA
Location 9(mi)
Metar :EGKA 291320Z 03019G29KT 9999 -SHRA FEW008 SCT018 04/02 Q1036
Sun 29th March 13:20 pm

Airport
  Metar Aviation API Data Provided by https://www.checkwx.com/ PHP scripts by weather34.com ©2020